< < Back
Terminal Aerodrome Forecast


Current Version              Previous Versions:   1  2  3  4  5  6  7  8  9  

Terminal Aerodrome Forecast

582
FTUS42 KFFC 042343
TAFFTY
TAF
KFTY 042343Z 0500/0524 04003KT P6SM SCT070 SCT250
     FM050500 04003KT P6SM SCT110
     FM051400 08005KT P6SM SCT050
     FM051800 08006KT P6SM VCSH BKN050 PROB30 0518/0524 5SM -TSRA
      BKN045CB=

Latest METAR

889
SAUS70 KWBC 050100 RRA
MTRFTY
METAR KFTY 050053Z 00000KT 10SM CLR 23/22 A3001 RMK AO2 SLP154
T02330217


USA.gov is the U.S. government's official web portal to all federal, state and local government web resources and services.